Time;durP1;ratioP1;P1;durP2;ratioP2;P2;SDS_P1;SDS_P2;PMS_P1;PMS_P2;Temp;Humidity;BMP_temperature;BMP_pressure;BME280_temperature;BME280_humidity;BME280_pressure;Samples;Min_cycle;Max_cycle;Signal;HPM_P1;HPM_P2
2023/03/18 00:01:02;;;;;;;;;;;;;;;;;;5094347;28;20504;-43
2023/03/18 00:03:28;;;;;;;;;;;;;;;;;;5095883;28;19915;-46
2023/03/18 00:05:54;;;;;;;;;;;;;;;;;;5075112;28;20365;-42
2023/03/18 00:08:19;;;;;;;;;;;;;;;;;;5058000;28;19912;-44
2023/03/18 00:10:45;;;;;;;;;;;;;;;;;;5054475;28;20446;-45
2023/03/18 00:13:10;;;;;;;;;;;;;;;;;;5086636;22;19931;-44
2023/03/18 00:15:36;;;;;;;;;;;;;;;;;;5093012;28;19920;-44
2023/03/18 00:18:01;;;;;;;;;;;;;;;;;;5091842;28;19916;-45
2023/03/18 00:20:45;;;;;;;;;;;;;;;;;;5093021;28;19912;-45
2023/03/18 00:23:10;;;;;;;;;;;;;;;;;;5056705;28;19928;-47
2023/03/18 00:25:36;;;;;;;;;;;;;;;;;;5053093;28;20285;-45
2023/03/18 00:28:01;;;;;;;;;;;;;;;;;;5054750;28;20361;-45
2023/03/18 00:30:27;;;;;;;;;;;;;;;;;;5062686;28;20384;-44
2023/03/18 00:32:52;;;;;;;;;;;;;;;;;;5074207;28;19923;-45
2023/03/18 00:35:18;;;;;;;;;;;;;;;;;;5082263;28;19965;-44
2023/03/18 00:37:44;;;;;;;;;;;;;;;;;;5057380;28;19920;-54
2023/03/18 00:40:09;;;;;;;;;;;;;;;;;;5062753;28;20396;-53
2023/03/18 00:42:38;;;;;;;;;;;;;;;;;;5073730;28;20262;-55
2023/03/18 00:45:04;;;;;;;;;;;;;;;;;;5070599;28;19913;-55
2023/03/18 00:47:30;;;;;;;;;;;;;;;;;;5089352;28;20391;-46
2023/03/18 00:49:56;;;;;;;;;;;;;;;;;;5059434;28;19921;-50
2023/03/18 00:52:21;;;;;;;;;;;;;;;;;;5064304;28;20388;-45
2023/03/18 00:54:46;;;;;;;;;;;;;;;;;;5088426;28;19916;-54
2023/03/18 00:57:12;;;;;;;;;;;;;;;;;;5054782;28;19912;-54
2023/03/18 00:59:37;;;;;;;;;;;;;;;;;;5054599;28;19913;-55
2023/03/18 01:02:03;;;;;;;;;;;;;;;;;;5069410;28;19912;-48
2023/03/18 01:04:28;;;;;;;;;;;;;;;;;;5074090;28;19954;-45
2023/03/18 01:06:54;;;;;;;;;;;;;;;;;;5074122;28;19916;-46
2023/03/18 01:09:19;;;;;;;;;;;;;;;;;;5058698;28;19929;-43
2023/03/18 01:11:44;;;;;;;;;;;;;;;;;;5093796;28;19923;-44
2023/03/18 01:14:11;;;;;;;;;;;;;;;;;;5085602;28;19924;-43
2023/03/18 01:16:36;;;;;;;;;;;;;;;;;;5087061;28;19913;-43
2023/03/18 01:19:03;;;;;;;;;;;;;;;;;;5093990;28;19915;-44
2023/03/18 01:21:28;;;;;;;;;;;;;;;;;;5084611;28;19920;-44
2023/03/18 01:23:53;;;;;;;;;;;;;;;;;;5089095;28;19909;-43
2023/03/18 01:26:19;;;;;;;;;;;;;;;;;;5083471;28;19916;-44
2023/03/18 01:28:46;;;;;;;;;;;;;;;;;;5071944;28;19913;-43
2023/03/18 01:31:11;;;;;;;;;;;;;;;;;;5065012;28;19925;-45
2023/03/18 01:33:36;;;;;;;;;;;;;;;;;;5080584;28;19916;-44
2023/03/18 01:36:02;;;;;;;;;;;;;;;;;;5093692;28;19908;-47
2023/03/18 01:38:31;;;;;;;;;;;;;;;;;;5091626;28;19912;-45
2023/03/18 01:40:56;;;;;;;;;;;;;;;;;;5066329;28;19912;-45
2023/03/18 01:43:22;;;;;;;;;;;;;;;;;;5066059;28;19999;-46
2023/03/18 01:45:48;;;;;;;;;;;;;;;;;;5068629;28;19963;-43
2023/03/18 01:48:14;;;;;;;;;;;;;;;;;;5072109;28;19973;-43
2023/03/18 01:50:39;;;;;;;;;;;;;;;;;;5056354;28;19974;-44
2023/03/18 01:53:05;;;;;;;;;;;;;;;;;;5067986;28;19912;-45
2023/03/18 01:55:31;;;;;;;;;;;;;;;;;;5073522;28;20316;-43
2023/03/18 01:57:56;;;;;;;;;;;;;;;;;;5072563;28;20360;-43
2023/03/18 02:00:22;;;;;;;;;;;;;;;;;;5090334;28;19908;-43
2023/03/18 02:02:47;;;;;;;;;;;;;;;;;;5074790;28;19948;-44
2023/03/18 02:05:13;;;;;;;;;;;;;;;;;;5093229;28;19908;-43
2023/03/18 02:07:38;;;;;;;;;;;;;;;;;;5056875;28;19912;-43
2023/03/18 02:10:03;;;;;;;;;;;;;;;;;;5068377;28;20440;-41
2023/03/18 02:12:29;;;;;;;;;;;;;;;;;;5084228;28;19927;-47
2023/03/18 02:14:54;;;;;;;;;;;;;;;;;;5072995;28;20034;-46
2023/03/18 02:17:20;;;;;;;;;;;;;;;;;;5073555;28;19912;-48
2023/03/18 02:19:46;;;;;;;;;;;;;;;;;;5073893;28;19916;-44
2023/03/18 02:22:11;;;;;;;;;;;;;;;;;;5073385;28;20062;-43
2023/03/18 02:24:37;;;;;;;;;;;;;;;;;;5072709;28;19999;-45
2023/03/18 02:27:03;;;;;;;;;;;;;;;;;;5072864;28;19999;-43
2023/03/18 02:29:29;;;;;;;;;;;;;;;;;;5073033;28;20255;-43
2023/03/18 02:31:55;;;;;;;;;;;;;;;;;;5073024;28;20015;-45
2023/03/18 02:34:21;;;;;;;;;;;;;;;;;;5072234;28;19995;-46
2023/03/18 02:36:47;;;;;;;;;;;;;;;;;;5072749;28;19919;-43
2023/03/18 02:39:12;;;;;;;;;;;;;;;;;;5062509;28;20284;-44
2023/03/18 02:41:38;;;;;;;;;;;;;;;;;;5072242;28;20346;-43
2023/03/18 02:44:03;;;;;;;;;;;;;;;;;;5060465;28;20394;-46
2023/03/18 02:46:29;;;;;;;;;;;;;;;;;;5057261;28;19999;-45
2023/03/18 02:48:55;;;;;;;;;;;;;;;;;;5052790;28;19920;-43
2023/03/18 02:51:24;;;;;;;;;;;;;;;;;;5055441;28;20123;-43
2023/03/18 02:53:49;;;;;;;;;;;;;;;;;;5069778;28;20365;-43
2023/03/18 02:56:15;;;;;;;;;;;;;;;;;;5057960;28;19920;-42
2023/03/18 02:58:40;;;;;;;;;;;;;;;;;;5070293;28;19917;-45
2023/03/18 03:01:06;;;;;;;;;;;;;;;;;;5058617;28;19970;-44
2023/03/18 03:03:33;;;;;;;;;;;;;;;;;;5052603;28;19909;-44
2023/03/18 03:05:59;;;;;;;;;;;;;;;;;;5062116;28;19938;-43
2023/03/18 03:08:25;;;;;;;;;;;;;;;;;;5064919;28;19974;-43
2023/03/18 03:10:51;;;;;;;;;;;;;;;;;;5067462;28;19968;-43
2023/03/18 03:13:17;;;;;;;;;;;;;;;;;;5052004;28;19928;-43
2023/03/18 03:15:42;;;;;;;;;;;;;;;;;;5061630;28;19952;-43
2023/03/18 03:18:08;;;;;;;;;;;;;;;;;;5072012;28;19908;-46
2023/03/18 03:20:36;;;;;;;;;;;;;;;;;;5065119;28;19920;-44
2023/03/18 03:23:02;;;;;;;;;;;;;;;;;;5052209;28;20010;-46
2023/03/18 03:25:27;;;;;;;;;;;;;;;;;;5062139;28;20435;-43
2023/03/18 03:27:53;;;;;;;;;;;;;;;;;;5062436;28;20303;-43
2023/03/18 03:30:18;;;;;;;;;;;;;;;;;;5072114;28;20369;-47
2023/03/18 03:32:44;;;;;;;;;;;;;;;;;;5072551;28;19912;-43
2023/03/18 03:35:09;;;;;;;;;;;;;;;;;;5061371;28;19913;-46
2023/03/18 03:37:35;;;;;;;;;;;;;;;;;;5075799;28;20275;-46
2023/03/18 03:40:00;;;;;;;;;;;;;;;;;;5076280;28;20364;-47
2023/03/18 03:42:26;;;;;;;;;;;;;;;;;;5077534;28;20448;-43
2023/03/18 03:44:51;;;;;;;;;;;;;;;;;;5070787;28;19923;-44
2023/03/18 03:47:17;;;;;;;;;;;;;;;;;;5075866;28;19995;-43
2023/03/18 03:49:42;;;;;;;;;;;;;;;;;;5075974;28;19946;-45
2023/03/18 03:52:08;;;;;;;;;;;;;;;;;;5075893;28;19956;-43
2023/03/18 03:54:33;;;;;;;;;;;;;;;;;;5075845;28;19915;-43
2023/03/18 03:56:59;;;;;;;;;;;;;;;;;;5075531;28;20003;-46
2023/03/18 03:59:25;;;;;;;;;;;;;;;;;;5076305;28;19933;-42
2023/03/18 04:01:50;;;;;;;;;;;;;;;;;;5065993;28;20428;-43
2023/03/18 04:04:16;;;;;;;;;;;;;;;;;;5055767;28;19963;-44
2023/03/18 04:06:41;;;;;;;;;;;;;;;;;;5055886;28;19948;-47
2023/03/18 04:09:07;;;;;;;;;;;;;;;;;;5074894;28;19947;-44
2023/03/18 04:11:32;;;;;;;;;;;;;;;;;;5075523;28;20007;-43
2023/03/18 04:13:57;;;;;;;;;;;;;;;;;;5075069;28;20046;-47
2023/03/18 04:16:23;;;;;;;;;;;;;;;;;;5076214;28;20037;-43
2023/03/18 04:18:48;;;;;;;;;;;;;;;;;;5074973;28;19916;-44
2023/03/18 04:21:14;;;;;;;;;;;;;;;;;;5075706;28;19915;-44
2023/03/18 04:23:39;;;;;;;;;;;;;;;;;;5075204;28;19908;-43
2023/03/18 04:26:05;;;;;;;;;;;;;;;;;;5075217;28;19912;-44
2023/03/18 04:28:30;;;;;;;;;;;;;;;;;;5067680;28;20347;-43
2023/03/18 04:30:56;;;;;;;;;;;;;;;;;;5055875;28;19921;-43
2023/03/18 04:33:21;;;;;;;;;;;;;;;;;;5057788;28;19944;-46
2023/03/18 04:35:47;;;;;;;;;;;;;;;;;;5059020;28;19959;-43
2023/03/18 04:38:12;;;;;;;;;;;;;;;;;;5056433;28;19920;-44
2023/03/18 04:40:38;;;;;;;;;;;;;;;;;;5082292;28;19912;-44
2023/03/18 04:43:03;;;;;;;;;;;;;;;;;;5090320;28;19916;-43
2023/03/18 04:45:29;;;;;;;;;;;;;;;;;;5065625;28;19912;-44
2023/03/18 04:47:54;;;;;;;;;;;;;;;;;;5091674;28;19908;-43
2023/03/18 04:50:20;;;;;;;;;;;;;;;;;;5057442;28;19925;-46
2023/03/18 04:52:45;;;;;;;;;;;;;;;;;;5054963;28;19909;-46
2023/03/18 04:55:10;;;;;;;;;;;;;;;;;;5056627;28;19964;-43
2023/03/18 04:57:37;;;;;;;;;;;;;;;;;;5054800;28;19916;-43
2023/03/18 05:00:03;;;;;;;;;;;;;;;;;;5072923;28;19913;-43
2023/03/18 05:02:29;;;;;;;;;;;;;;;;;;5074784;28;19962;-46
2023/03/18 05:04:54;;;;;;;;;;;;;;;;;;5066876;28;20003;-44
2023/03/18 05:07:20;;;;;;;;;;;;;;;;;;5065544;28;20333;-45
2023/03/18 05:09:46;;;;;;;;;;;;;;;;;;5074084;28;19912;-45
2023/03/18 05:12:12;;;;;;;;;;;;;;;;;;5059325;28;19920;-46
2023/03/18 05:14:37;;;;;;;;;;;;;;;;;;5074423;28;20292;-44
2023/03/18 05:17:03;;;;;;;;;;;;;;;;;;5064813;28;19913;-45
2023/03/18 05:19:28;;;;;;;;;;;;;;;;;;5054365;28;19941;-45
2023/03/18 05:21:54;;;;;;;;;;;;;;;;;;5079847;28;20368;-44
2023/03/18 05:24:19;;;;;;;;;;;;;;;;;;5094269;28;20421;-44
2023/03/18 05:26:45;;;;;;;;;;;;;;;;;;5084563;28;20011;-45
2023/03/18 05:29:10;;;;;;;;;;;;;;;;;;5053469;28;19917;-44
2023/03/18 05:31:35;;;;;;;;;;;;;;;;;;5066098;28;20391;-43
2023/03/18 05:34:01;;;;;;;;;;;;;;;;;;5073733;28;20349;-43
2023/03/18 05:36:28;;;;;;;;;;;;;;;;;;5069469;28;19917;-45
2023/03/18 05:38:54;;;;;;;;;;;;;;;;;;5052906;28;20361;-43
2023/03/18 05:41:19;;;;;;;;;;;;;;;;;;5062380;28;19920;-45
2023/03/18 05:43:45;;;;;;;;;;;;;;;;;;5066444;28;19939;-44
2023/03/18 05:46:10;;;;;;;;;;;;;;;;;;5053470;28;19915;-43
2023/03/18 05:48:36;;;;;;;;;;;;;;;;;;5056673;28;19920;-43
2023/03/18 05:51:01;;;;;;;;;;;;;;;;;;5053983;28;19925;-46
2023/03/18 05:53:27;;;;;;;;;;;;;;;;;;5076620;28;19938;-43
2023/03/18 05:55:52;;;;;;;;;;;;;;;;;;5094165;28;19912;-43
2023/03/18 05:58:18;;;;;;;;;;;;;;;;;;5086869;28;19927;-45
2023/03/18 06:00:44;;;;;;;;;;;;;;;;;;5056007;28;19917;-47
2023/03/18 06:03:09;;;;;;;;;;;;;;;;;;5055091;28;19909;-44
2023/03/18 06:05:35;;;;;;;;;;;;;;;;;;5054392;28;19920;-44
2023/03/18 06:08:00;;;;;;;;;;;;;;;;;;5053517;28;19912;-44
2023/03/18 06:10:26;;;;;;;;;;;;;;;;;;5055875;28;19919;-45
2023/03/18 06:12:51;;;;;;;;;;;;;;;;;;5053364;28;20384;-45
2023/03/18 06:15:17;;;;;;;;;;;;;;;;;;5070727;28;20426;-43
2023/03/18 06:17:43;;;;;;;;;;;;;;;;;;5073316;28;19936;-46
2023/03/18 06:20:09;;;;;;;;;;;;;;;;;;5067432;28;19947;-43
2023/03/18 06:22:34;;;;;;;;;;;;;;;;;;5058285;28;20376;-43
2023/03/18 06:25:00;;;;;;;;;;;;;;;;;;5052858;28;19909;-42
2023/03/18 06:27:25;;;;;;;;;;;;;;;;;;5065207;28;19920;-43
2023/03/18 06:29:51;;;;;;;;;;;;;;;;;;5072613;28;19917;-43
2023/03/18 06:32:16;;;;;;;;;;;;;;;;;;5061385;28;19921;-45
2023/03/18 06:34:42;;;;;;;;;;;;;;;;;;5052691;28;19909;-44
2023/03/18 06:37:08;;;;;;;;;;;;;;;;;;5069642;28;19912;-43
2023/03/18 06:39:34;;;;;;;;;;;;;;;;;;5093062;28;19912;-43
2023/03/18 06:41:59;;;;;;;;;;;;;;;;;;5064672;28;19913;-43
2023/03/18 06:44:24;;;;;;;;;;;;;;;;;;5052439;28;19908;-43
2023/03/18 06:46:50;;;;;;;;;;;;;;;;;;5052902;28;19923;-43
2023/03/18 06:49:15;;;;;;;;;;;;;;;;;;5052363;28;19909;-43
2023/03/18 06:51:41;;;;;;;;;;;;;;;;;;5054998;28;19925;-43
2023/03/18 06:54:06;;;;;;;;;;;;;;;;;;5093014;23;20333;-44
2023/03/18 06:56:37;;;;;;;;;;;;;;;;;;5091771;28;20483;-42
2023/03/18 06:59:03;;;;;;;;;;;;;;;;;;5092941;28;19912;-43
2023/03/18 07:01:29;;;;;;;;;;;;;;;;;;5062015;28;19912;-45
2023/03/18 07:03:54;;;;;;;;;;;;;;;;;;5052385;28;19912;-46
2023/03/18 07:06:20;;;;;;;;;;;;;;;;;;5051700;28;19920;-43
2023/03/18 07:08:46;;;;;;;;;;;;;;;;;;5052470;28;19979;-42
2023/03/18 07:11:11;;;;;;;;;;;;;;;;;;5055071;28;19927;-43
2023/03/18 07:13:36;;;;;;;;;;;;;;;;;;5072184;28;20320;-42
2023/03/18 07:16:02;;;;;;;;;;;;;;;;;;5060445;28;19913;-44
2023/03/18 07:18:27;;;;;;;;;;;;;;;;;;5052507;28;19995;-43
2023/03/18 07:20:53;;;;;;;;;;;;;;;;;;5062237;28;20381;-43
2023/03/18 07:23:19;;;;;;;;;;;;;;;;;;5054165;28;20007;-46
2023/03/18 07:25:45;;;;;;;;;;;;;;;;;;5052604;28;20005;-42
2023/03/18 07:28:10;;;;;;;;;;;;;;;;;;5052517;28;19909;-43
2023/03/18 07:30:37;;;;;;;;;;;;;;;;;;5052264;28;20404;-42
2023/03/18 07:33:02;;;;;;;;;;;;;;;;;;5063378;28;19924;-43
2023/03/18 07:35:28;;;;;;;;;;;;;;;;;;5067234;28;19989;-42
2023/03/18 07:37:53;;;;;;;;;;;;;;;;;;5051268;28;19919;-42
2023/03/18 07:40:19;;;;;;;;;;;;;;;;;;5055808;28;19916;-42
2023/03/18 07:42:44;;;;;;;;;;;;;;;;;;5071625;28;19920;-43
2023/03/18 07:45:09;;;;;;;;;;;;;;;;;;5069731;28;19939;-42
2023/03/18 07:47:35;;;;;;;;;;;;;;;;;;5051748;28;19920;-45
2023/03/18 07:50:01;;;;;;;;;;;;;;;;;;5051740;28;19919;-46
2023/03/18 07:52:27;;;;;;;;;;;;;;;;;;5052268;28;19921;-43
2023/03/18 07:54:52;;;;;;;;;;;;;;;;;;5071864;28;20270;-42
2023/03/18 07:57:17;;;;;;;;;;;;;;;;;;5064564;28;20276;-43
2023/03/18 07:59:43;;;;;;;;;;;;;;;;;;5070175;28;20585;-42
2023/03/18 08:02:08;;;;;;;;;;;;;;;;;;5054841;28;19909;-42
2023/03/18 08:04:34;;;;;;;;;;;;;;;;;;5065394;28;19913;-43
2023/03/18 08:07:00;;;;;;;;;;;;;;;;;;5055663;28;19966;-42
2023/03/18 08:09:26;;;;;;;;;;;;;;;;;;5072060;28;19973;-43
2023/03/18 08:11:52;;;;;;;;;;;;;;;;;;5055110;28;19920;-43
2023/03/18 08:14:17;;;;;;;;;;;;;;;;;;5060250;28;20007;-45
2023/03/18 08:16:42;;;;;;;;;;;;;;;;;;5059186;28;19995;-42
2023/03/18 08:19:08;;;;;;;;;;;;;;;;;;5050832;28;19919;-45
2023/03/18 08:21:34;;;;;;;;;;;;;;;;;;5053721;28;19996;-43
2023/03/18 08:23:59;;;;;;;;;;;;;;;;;;5059294;28;19928;-42
2023/03/18 08:26:25;;;;;;;;;;;;;;;;;;5068349;28;19991;-44
2023/03/18 08:28:50;;;;;;;;;;;;;;;;;;5060978;28;20396;-42
2023/03/18 08:31:15;;;;;;;;;;;;;;;;;;5054946;28;19928;-42
2023/03/18 08:33:41;;;;;;;;;;;;;;;;;;5065177;28;19920;-42
2023/03/18 08:36:07;;;;;;;;;;;;;;;;;;5075239;28;19912;-43
2023/03/18 08:38:32;;;;;;;;;;;;;;;;;;5073343;28;19909;-42
2023/03/18 08:40:58;;;;;;;;;;;;;;;;;;5075149;28;20469;-42
2023/03/18 08:43:24;;;;;;;;;;;;;;;;;;5069478;28;19912;-45
2023/03/18 08:45:50;;;;;;;;;;;;;;;;;;5074632;28;20280;-44
2023/03/18 08:48:15;;;;;;;;;;;;;;;;;;5073737;28;19909;-42
2023/03/18 08:50:41;;;;;;;;;;;;;;;;;;5074809;28;19920;-42
2023/03/18 08:53:06;;;;;;;;;;;;;;;;;;5073261;28;19932;-43
2023/03/18 08:55:32;;;;;;;;;;;;;;;;;;5074917;28;20395;-43
2023/03/18 08:57:58;;;;;;;;;;;;;;;;;;5073742;28;19920;-44
2023/03/18 09:00:24;;;;;;;;;;;;;;;;;;5074913;28;20004;-43
2023/03/18 09:02:50;;;;;;;;;;;;;;;;;;5073512;28;19916;-44
2023/03/18 09:05:16;;;;;;;;;;;;;;;;;;5074553;28;19962;-43
2023/03/18 09:07:42;;;;;;;;;;;;;;;;;;5074729;28;19913;-42
2023/03/18 09:10:08;;;;;;;;;;;;;;;;;;5073475;28;19919;-43
2023/03/18 09:12:34;;;;;;;;;;;;;;;;;;5074555;28;19916;-43
2023/03/18 09:15:00;;;;;;;;;;;;;;;;;;5070673;28;19912;-42
2023/03/18 09:17:26;;;;;;;;;;;;;;;;;;5074506;28;19912;-44
2023/03/18 09:19:51;;;;;;;;;;;;;;;;;;5072453;28;19942;-44
2023/03/18 09:22:17;;;;;;;;;;;;;;;;;;5066337;28;20284;-42
2023/03/18 09:24:42;;;;;;;;;;;;;;;;;;5067558;28;20377;-43
2023/03/18 09:27:07;;;;;;;;;;;;;;;;;;5074274;28;19950;-42
2023/03/18 09:29:33;;;;;;;;;;;;;;;;;;5072310;28;19952;-43
2023/03/18 09:31:59;;;;;;;;;;;;;;;;;;5074067;28;20017;-42
2023/03/18 09:34:25;;;;;;;;;;;;;;;;;;5063501;28;20000;-42
2023/03/18 09:36:51;;;;;;;;;;;;;;;;;;5054126;28;19913;-44
2023/03/18 09:39:17;;;;;;;;;;;;;;;;;;5066519;28;19917;-46
2023/03/18 09:41:42;;;;;;;;;;;;;;;;;;5073693;28;19924;-42
2023/03/18 09:44:07;;;;;;;;;;;;;;;;;;5072454;28;19913;-43
2023/03/18 09:46:33;;;;;;;;;;;;;;;;;;5073915;28;19912;-42
2023/03/18 09:48:59;;;;;;;;;;;;;;;;;;5062046;28;20285;-43
2023/03/18 09:51:25;;;;;;;;;;;;;;;;;;5052222;28;19924;-45
2023/03/18 09:53:51;;;;;;;;;;;;;;;;;;5053002;28;19921;-43
2023/03/18 09:56:16;;;;;;;;;;;;;;;;;;5053819;28;20011;-44
2023/03/18 09:58:42;;;;;;;;;;;;;;;;;;5055628;28;19921;-43
2023/03/18 10:01:08;;;;;;;;;;;;;;;;;;5052870;28;19913;-42
2023/03/18 10:03:33;;;;;;;;;;;;;;;;;;5058467;28;19935;-44
2023/03/18 10:05:59;;;;;;;;;;;;;;;;;;5073414;28;20285;-42
2023/03/18 10:08:24;;;;;;;;;;;;;;;;;;5072289;28;19913;-43
2023/03/18 10:10:50;;;;;;;;;;;;;;;;;;5073408;28;19908;-43
2023/03/18 10:13:16;;;;;;;;;;;;;;;;;;5072061;28;20308;-42
2023/03/18 10:15:41;;;;;;;;;;;;;;;;;;5073513;28;20405;-44
2023/03/18 10:18:07;;;;;;;;;;;;;;;;;;5072138;28;19999;-44
2023/03/18 10:20:33;;;;;;;;;;;;;;;;;;5072362;28;19994;-44
2023/03/18 10:22:58;;;;;;;;;;;;;;;;;;5072913;28;20008;-43
2023/03/18 10:25:24;;;;;;;;;;;;;;;;;;5072199;28;19948;-42
2023/03/18 10:27:50;;;;;;;;;;;;;;;;;;5071974;28;19948;-43
2023/03/18 10:30:16;;;;;;;;;;;;;;;;;;5073002;28;19944;-42
2023/03/18 10:32:41;;;;;;;;;;;;;;;;;;5071489;28;19985;-43
2023/03/18 10:35:08;;;;;;;;;;;;;;;;;;5072053;28;19919;-43
2023/03/18 10:37:33;;;;;;;;;;;;;;;;;;5072838;28;19961;-42
2023/03/18 10:39:59;;;;;;;;;;;;;;;;;;5054983;28;19913;-43
2023/03/18 10:42:25;;;;;;;;;;;;;;;;;;5052793;28;19963;-44
2023/03/18 10:44:51;;;;;;;;;;;;;;;;;;5054882;28;19917;-42
2023/03/18 10:47:18;;;;;;;;;;;;;;;;;;5062057;23;19909;-43
2023/03/18 10:49:43;;;;;;;;;;;;;;;;;;5074720;28;20019;-42
2023/03/18 10:52:09;;;;;;;;;;;;;;;;;;5072780;28;20196;-42
2023/03/18 10:54:35;;;;;;;;;;;;;;;;;;5087975;28;20343;-42
2023/03/18 10:57:00;;;;;;;;;;;;;;;;;;5092941;28;19912;-43
2023/03/18 10:59:26;;;;;;;;;;;;;;;;;;5091223;28;19966;-44
2023/03/18 11:01:51;;;;;;;;;;;;;;;;;;5092870;28;20066;-43
2023/03/18 11:04:17;;;;;;;;;;;;;;;;;;5090252;28;20283;-42
2023/03/18 11:06:43;;;;;;;;;;;;;;;;;;5092922;28;20328;-42
2023/03/18 11:09:09;;;;;;;;;;;;;;;;;;5091881;28;19912;-43
2023/03/18 11:11:34;;;;;;;;;;;;;;;;;;5093363;28;19938;-43
2023/03/18 11:14:00;;;;;;;;;;;;;;;;;;5090869;28;19916;-42
2023/03/18 11:16:28;;;;;;;;;;;;;;;;;;5092851;28;19908;-42
2023/03/18 11:18:53;;;;;;;;;;;;;;;;;;5086520;28;20050;-42
2023/03/18 11:21:19;;;;;;;;;;;;;;;;;;5092645;28;19973;-45
2023/03/18 11:23:54;;;;;;;;;;;;;;;;;;5083637;28;19960;-43
2023/03/18 11:26:20;;;;;;;;;;;;;;;;;;5069679;28;20414;-42
2023/03/18 11:28:46;;;;;;;;;;;;;;;;;;5071717;28;20428;-43
2023/03/18 11:31:12;;;;;;;;;;;;;;;;;;5072097;28;20445;-43
2023/03/18 11:33:38;;;;;;;;;;;;;;;;;;5076809;28;20441;-42
2023/03/18 11:36:03;;;;;;;;;;;;;;;;;;5072844;28;19909;-44
2023/03/18 11:38:28;;;;;;;;;;;;;;;;;;5073843;28;19971;-43
2023/03/18 11:40:54;;;;;;;;;;;;;;;;;;5071980;28;19909;-41
2023/03/18 11:43:20;;;;;;;;;;;;;;;;;;5073345;28;19924;-43
2023/03/18 11:45:45;;;;;;;;;;;;;;;;;;5071445;28;19916;-42
2023/03/18 11:48:12;;;;;;;;;;;;;;;;;;5073622;28;19928;-43
2023/03/18 11:50:37;;;;;;;;;;;;;;;;;;5070933;28;19912;-42
2023/03/18 11:53:02;;;;;;;;;;;;;;;;;;5071598;28;20442;-42
2023/03/18 11:55:28;;;;;;;;;;;;;;;;;;5072723;28;19919;-42
2023/03/18 11:57:54;;;;;;;;;;;;;;;;;;5076090;28;19908;-42
2023/03/18 12:00:19;;;;;;;;;;;;;;;;;;5094566;28;19912;-42
2023/03/18 12:02:45;;;;;;;;;;;;;;;;;;5096111;28;19912;-42
2023/03/18 12:05:10;;;;;;;;;;;;;;;;;;5080998;28;19917;-41
2023/03/18 12:07:36;;;;;;;;;;;;;;;;;;5075154;28;19908;-41
2023/03/18 12:10:06;;;;;;;;;;;;;;;;;;5079611;28;19916;-43
2023/03/18 12:12:33;;;;;;;;;;;;;;;;;;5095473;28;19916;-41
2023/03/18 12:14:58;;;;;;;;;;;;;;;;;;5095798;28;19908;-41
2023/03/18 12:17:24;;;;;;;;;;;;;;;;;;5095916;28;20484;-40
2023/03/18 12:19:49;;;;;;;;;;;;;;;;;;5078602;28;20347;-42
2023/03/18 12:22:15;;;;;;;;;;;;;;;;;;5095872;28;20199;-41
2023/03/18 12:24:40;;;;;;;;;;;;;;;;;;5093278;28;20263;-40
2023/03/18 12:27:06;;;;;;;;;;;;;;;;;;5095654;28;20390;-42
2023/03/18 12:29:32;;;;;;;;;;;;;;;;;;5082347;28;20402;-41
2023/03/18 12:31:58;;;;;;;;;;;;;;;;;;5078940;28;19968;-41
2023/03/18 12:34:23;;;;;;;;;;;;;;;;;;5076300;28;19955;-40
2023/03/18 12:36:49;;;;;;;;;;;;;;;;;;5084006;28;19951;-40
2023/03/18 12:39:14;;;;;;;;;;;;;;;;;;5095390;28;19947;-41
2023/03/18 12:41:40;;;;;;;;;;;;;;;;;;5083854;28;19912;-40
2023/03/18 12:44:06;;;;;;;;;;;;;;;;;;5076888;28;19967;-40
2023/03/18 12:46:32;;;;;;;;;;;;;;;;;;5083362;28;19962;-40
2023/03/18 12:48:57;;;;;;;;;;;;;;;;;;5082306;28;19921;-41
2023/03/18 12:51:23;;;;;;;;;;;;;;;;;;5080478;28;19939;-42
2023/03/18 12:53:48;;;;;;;;;;;;;;;;;;5076700;28;19913;-41
2023/03/18 12:56:14;;;;;;;;;;;;;;;;;;5073723;28;19912;-40
2023/03/18 12:58:40;;;;;;;;;;;;;;;;;;5074979;28;19912;-40
2023/03/18 13:01:15;;;;;;;;;;;;;;;;;;5074794;28;19908;-42
2023/03/18 13:03:41;;;;;;;;;;;;;;;;;;5077166;28;19917;-48
2023/03/18 13:06:07;;;;;;;;;;;;;;;;;;5084500;28;19949;-42
2023/03/18 13:08:33;;;;;;;;;;;;;;;;;;5080461;28;19933;-39
2023/03/18 13:10:58;;;;;;;;;;;;;;;;;;5090944;28;19931;-39
2023/03/18 13:13:25;;;;;;;;;;;;;;;;;;5089232;28;19922;-39
2023/03/18 13:15:51;;;;;;;;;;;;;;;;;;5090888;28;19939;-39
2023/03/18 13:18:16;;;;;;;;;;;;;;;;;;5091793;28;20109;-40
2023/03/18 13:20:42;;;;;;;;;;;;;;;;;;5081147;28;19916;-39
2023/03/18 13:23:08;;;;;;;;;;;;;;;;;;5088456;28;19912;-40
2023/03/18 13:25:34;;;;;;;;;;;;;;;;;;5094393;28;20352;-39
2023/03/18 13:28:00;;;;;;;;;;;;;;;;;;5094187;28;20141;-39
2023/03/18 13:30:27;;;;;;;;;;;;;;;;;;5092854;28;20376;-39
2023/03/18 13:32:52;;;;;;;;;;;;;;;;;;5093962;28;20016;-39
2023/03/18 13:35:18;;;;;;;;;;;;;;;;;;5093228;28;19912;-39
2023/03/18 13:37:43;;;;;;;;;;;;;;;;;;5077735;28;19912;-39
2023/03/18 13:40:09;;;;;;;;;;;;;;;;;;5090556;28;19972;-39
2023/03/18 13:42:34;;;;;;;;;;;;;;;;;;5089064;28;20386;-39
2023/03/18 13:45:00;;;;;;;;;;;;;;;;;;5073321;28;20467;-39
2023/03/18 13:47:25;;;;;;;;;;;;;;;;;;5073542;28;19908;-39
2023/03/18 13:49:51;;;;;;;;;;;;;;;;;;5078669;28;20280;-40
2023/03/18 13:52:16;;;;;;;;;;;;;;;;;;5073684;28;20369;-39
2023/03/18 13:54:42;;;;;;;;;;;;;;;;;;5090924;28;19916;-40
2023/03/18 13:57:07;;;;;;;;;;;;;;;;;;5090991;28;19970;-39
2023/03/18 13:59:32;;;;;;;;;;;;;;;;;;5094298;28;19915;-40
2023/03/18 14:01:59;;;;;;;;;;;;;;;;;;5090635;28;19923;-43
2023/03/18 14:04:24;;;;;;;;;;;;;;;;;;5073763;28;19962;-45
2023/03/18 14:06:50;;;;;;;;;;;;;;;;;;5073189;28;19912;-44
2023/03/18 14:09:15;;;;;;;;;;;;;;;;;;5077366;28;20245;-42
2023/03/18 14:11:41;;;;;;;;;;;;;;;;;;5092580;28;19920;-41
2023/03/18 14:14:06;;;;;;;;;;;;;;;;;;5093142;28;19909;-40
2023/03/18 14:16:32;;;;;;;;;;;;;;;;;;5093482;28;19951;-42
2023/03/18 14:18:57;;;;;;;;;;;;;;;;;;5091875;28;20347;-47
2023/03/18 14:21:22;;;;;;;;;;;;;;;;;;5078962;28;20399;-48
2023/03/18 14:23:48;;;;;;;;;;;;;;;;;;5072505;28;19913;-39
2023/03/18 14:26:13;;;;;;;;;;;;;;;;;;5077275;28;19908;-39
2023/03/18 14:28:39;;;;;;;;;;;;;;;;;;5092707;28;19908;-39
2023/03/18 14:31:04;;;;;;;;;;;;;;;;;;5092887;28;19922;-40
2023/03/18 14:33:30;;;;;;;;;;;;;;;;;;5083472;28;19952;-40
2023/03/18 14:35:56;;;;;;;;;;;;;;;;;;5073051;28;19909;-40
2023/03/18 14:38:21;;;;;;;;;;;;;;;;;;5073063;28;19962;-39
2023/03/18 14:40:46;;;;;;;;;;;;;;;;;;5072741;28;19915;-40
2023/03/18 14:43:12;;;;;;;;;;;;;;;;;;5072614;28;19912;-39
2023/03/18 14:45:37;;;;;;;;;;;;;;;;;;5077184;28;19908;-41
2023/03/18 14:48:03;;;;;;;;;;;;;;;;;;5092943;28;19920;-40
2023/03/18 14:50:28;;;;;;;;;;;;;;;;;;5086909;28;19912;-43
2023/03/18 14:52:54;;;;;;;;;;;;;;;;;;5078469;28;19921;-47
2023/03/18 14:55:20;;;;;;;;;;;;;;;;;;5077330;28;19916;-42
2023/03/18 14:57:45;;;;;;;;;;;;;;;;;;5071989;28;19962;-41
2023/03/18 15:00:11;;;;;;;;;;;;;;;;;;5081135;28;20167;-43
2023/03/18 15:02:36;;;;;;;;;;;;;;;;;;5092101;28;20279;-42
2023/03/18 15:05:02;;;;;;;;;;;;;;;;;;5085984;28;20288;-43
2023/03/18 15:07:27;;;;;;;;;;;;;;;;;;5091329;28;19916;-43
2023/03/18 15:09:53;;;;;;;;;;;;;;;;;;5084913;28;19916;-43
2023/03/18 15:12:19;;;;;;;;;;;;;;;;;;5082898;28;19985;-43
2023/03/18 15:14:44;;;;;;;;;;;;;;;;;;5092548;28;20408;-44
2023/03/18 15:17:10;;;;;;;;;;;;;;;;;;5090718;28;19912;-45
2023/03/18 15:19:35;;;;;;;;;;;;;;;;;;5076730;28;19908;-43
2023/03/18 15:22:03;;;;;;;;;;;;;;;;;;5091767;28;19908;-43
2023/03/18 15:24:28;;;;;;;;;;;;;;;;;;5077360;28;19916;-43
2023/03/18 15:26:54;;;;;;;;;;;;;;;;;;5092827;28;19915;-47
2023/03/18 15:29:19;;;;;;;;;;;;;;;;;;5072066;28;19912;-47
2023/03/18 15:31:45;;;;;;;;;;;;;;;;;;5074406;28;19921;-45
2023/03/18 15:34:10;;;;;;;;;;;;;;;;;;5084697;28;19944;-39
2023/03/18 15:36:36;;;;;;;;;;;;;;;;;;5096142;28;19908;-42
2023/03/18 15:39:02;;;;;;;;;;;;;;;;;;5096408;28;19908;-43
2023/03/18 15:41:28;;;;;;;;;;;;;;;;;;5096050;28;19969;-41
2023/03/18 15:43:54;;;;;;;;;;;;;;;;;;5096292;28;19908;-42
2023/03/18 15:46:19;;;;;;;;;;;;;;;;;;5083895;28;20319;-44
2023/03/18 15:48:52;;;;;;;;;;;;;;;;;;5076178;28;20446;-44
2023/03/18 15:51:18;;;;;;;;;;;;;;;;;;5076143;28;19920;-42
2023/03/18 15:53:46;;;;;;;;;;;;;;;;;;5083571;28;19912;-43
2023/03/18 15:56:12;;;;;;;;;;;;;;;;;;5096433;28;19931;-45
2023/03/18 15:58:37;;;;;;;;;;;;;;;;;;5096154;28;20288;-42
2023/03/18 16:01:03;;;;;;;;;;;;;;;;;;5096394;28;19915;-42
2023/03/18 16:03:31;;;;;;;;;;;;;;;;;;5096111;28;19918;-42
2023/03/18 16:05:57;;;;;;;;;;;;;;;;;;5093100;28;20372;-45
2023/03/18 16:08:22;;;;;;;;;;;;;;;;;;5075966;28;19967;-44
2023/03/18 16:10:47;;;;;;;;;;;;;;;;;;5083786;28;20276;-43
2023/03/18 16:13:13;;;;;;;;;;;;;;;;;;5082734;28;20415;-46
2023/03/18 16:15:38;;;;;;;;;;;;;;;;;;5094585;28;20005;-43
2023/03/18 16:18:04;;;;;;;;;;;;;;;;;;5093090;28;19966;-45
2023/03/18 16:20:30;;;;;;;;;;;;;;;;;;5094334;28;20382;-44
2023/03/18 16:22:55;;;;;;;;;;;;;;;;;;5092008;28;20328;-44
2023/03/18 16:25:21;;;;;;;;;;;;;;;;;;5081090;28;19993;-42
2023/03/18 16:27:47;;;;;;;;;;;;;;;;;;5083711;28;19916;-41
2023/03/18 16:30:12;;;;;;;;;;;;;;;;;;5095372;28;19908;-42
2023/03/18 16:32:37;;;;;;;;;;;;;;;;;;5095173;28;20376;-42
2023/03/18 16:35:03;;;;;;;;;;;;;;;;;;5095486;28;19915;-41